Yachats, OR (97498)

11:06 PM PDT on August 30, 2016 (GMT -0700)
Stormwatcher's Retreat | | Change Station

Elev 26 ft 44.31 °N, 124.11 °W | Updated 1 minute ago

Mostly Cloudy
Mostly Cloudy
60.4 °F
Feels Like 60.4 °F
N
0.0
Wind Variable Wind from SSW
Gusts 1.0 mph

Today
High -- | Low -- °F
--% Chance of Precip.
Yesterday
High -- | Low -- °F
Precip. -- in
Pressure 30.04 in
Visibility 10.0 miles
Clouds Scattered Clouds 1300 ft
Scattered Clouds 2200 ft
Mostly Cloudy 2900 ft
Dew Point 58 °F
Humidity 90%
Rainfall 0.00 in
Snow Depth Not available.
6:37 AM 7:55 PM
Waning Crescent, 1% visible
METAR KONP 310555Z AUTO 00000KT 10SM SCT013 SCT022 BKN029 15/13 A3004 RMK AO2
Pressure 30.04 in
Visibility 10.0 miles
Clouds Scattered Clouds 1300 ft
Scattered Clouds 2200 ft
Mostly Cloudy 2900 ft
Dew Point 58 °F
Humidity 90%
Rainfall 0.00 in
Snow Depth Not available.
6:37 AM 7:55 PM
Waning Crescent, 1% visible
METAR KONP 310555Z AUTO 00000KT 10SM SCT013 SCT022 BKN029 15/13 A3004 RMK AO2

10-Day Weather Forecast

Almanac

Astronomy

Aug. 30, 2016 Rise Set
Actual Time
Civil Twilight
Nautical Twilight
Astronomical Twilight
Moon
Length of Visible Light
Length of Day
Tomorrow will be .
, % of the Moon is Illuminated

Today's Extremes

State Highs State Lows

Community

WunderPhotos

Upload Photos

1,936,040 photos uploaded!

WunderBlog® & News

Nearby

Air Quality

  Air Quality AQ Index Pollutant
Not available.

Snow Depth

Station Depth Elevation

Earthquake Activity

City Distance Mag. Time & Date
Minimum magnitude displayed is 2.5.

Coastal Water Temperatures

Place Temperature

Stations

Nearby Weather Stations

Station Location Temp. Windchill Dew Point Humidity Wind Precip. Elev Updated Type
                   

Watches & Warnings

There are currently no watches in effect.